createdAt,value
2019-05-01T00:00:15.787Z,10.78
2019-05-01T00:03:04.548Z,10.85
2019-05-01T00:05:40.626Z,10.92
2019-05-01T00:08:14.606Z,10.89
2019-05-01T00:10:48.072Z,10.84
2019-05-01T00:13:21.539Z,10.80
2019-05-01T00:15:55.966Z,10.75
2019-05-01T00:18:29.951Z,10.71
2019-05-01T00:21:03.870Z,10.68
2019-05-01T00:23:37.652Z,10.78
2019-05-01T00:26:11.456Z,10.73
2019-05-01T00:28:45.552Z,10.73
2019-05-01T00:31:20.194Z,10.70
2019-05-01T00:33:55.432Z,10.77
2019-05-01T00:36:30.078Z,10.69
2019-05-01T00:39:04.081Z,10.68
2019-05-01T00:41:37.030Z,10.70
2019-05-01T00:44:10.915Z,10.75
2019-05-01T00:46:44.704Z,10.80
2019-05-01T00:49:18.076Z,10.75
2019-05-01T00:51:51.681Z,10.73
2019-05-01T00:54:25.528Z,10.65
2019-05-01T00:57:05.651Z,10.59
2019-05-01T00:59:54.823Z,10.51
2019-05-01T01:02:51.087Z,10.56
2019-05-01T01:05:24.914Z,10.49
2019-05-01T01:07:58.379Z,10.41
2019-05-01T01:10:32.545Z,10.36
2019-05-01T01:13:06.361Z,10.41
2019-05-01T01:15:41.166Z,10.33
2019-05-01T01:18:16.130Z,10.28
2019-05-01T01:20:49.755Z,10.26
2019-05-01T01:23:23.203Z,10.33
2019-05-01T01:25:56.981Z,10.27
2019-05-01T01:28:30.148Z,10.28
2019-05-01T01:31:04.135Z,10.33
2019-05-01T01:33:38.666Z,10.34
2019-05-01T01:36:12.139Z,10.31
2019-05-01T01:38:45.564Z,10.36
2019-05-01T01:41:20.066Z,10.44
2019-05-01T01:44:04.462Z,10.46
2019-05-01T01:46:40.531Z,10.37
2019-05-01T01:49:14.070Z,10.35
2019-05-01T01:51:47.735Z,10.35
2019-05-01T01:54:21.424Z,10.36
2019-05-01T01:56:54.981Z,10.35
2019-05-01T01:59:28.584Z,10.31
2019-05-01T02:02:23.151Z,10.33
2019-05-01T02:05:17.966Z,10.37
2019-05-01T02:07:52.284Z,10.39
2019-05-01T02:10:26.511Z,10.43
2019-05-01T02:13:00.391Z,10.45
2019-05-01T02:15:34.814Z,10.49
2019-05-01T02:18:26.834Z,10.53
2019-05-01T02:20:59.944Z,10.44
2019-05-01T02:23:34.109Z,10.43
2019-05-01T02:26:12.950Z,10.42
2019-05-01T02:28:55.221Z,10.44
2019-05-01T02:31:33.544Z,10.43
2019-05-01T02:34:07.466Z,10.44
2019-05-01T02:36:42.906Z,10.40
2019-05-01T02:39:18.087Z,10.40
2019-05-01T02:41:54.187Z,10.37
2019-05-01T02:44:43.863Z,10.37
2019-05-01T02:47:24.839Z,10.36
2019-05-01T02:50:12.453Z,10.35
2019-05-01T02:52:45.869Z,10.30
2019-05-01T02:55:40.991Z,10.29
2019-05-01T02:58:14.487Z,10.29
2019-05-01T03:00:48.803Z,10.27
2019-05-01T03:03:22.426Z,10.27
2019-05-01T03:05:56.115Z,10.28
2019-05-01T03:08:29.885Z,10.28
2019-05-01T03:11:03.480Z,10.26
2019-05-01T03:13:39.282Z,10.25
2019-05-01T03:16:14.579Z,10.24
2019-05-01T03:18:52.368Z,10.23
2019-05-01T03:21:50.210Z,10.23
2019-05-01T03:24:26.997Z,10.21
2019-05-01T03:27:01.182Z,10.18
2019-05-01T03:29:34.943Z,10.14
2019-05-01T03:32:19.274Z,10.13
2019-05-01T03:34:43.770Z,10.13
2019-05-01T03:37:18.052Z,10.13
2019-05-01T03:39:51.906Z,10.12
2019-05-01T03:42:26.417Z,10.13
2019-05-01T03:44:59.857Z,10.14
2019-05-01T03:47:33.875Z,10.10
2019-05-01T03:50:07.800Z,10.11
2019-05-01T03:52:41.624Z,10.12
2019-05-01T03:55:15.777Z,10.12
2019-05-01T03:57:48.867Z,10.12
2019-05-01T04:00:31.611Z,10.10
2019-05-01T04:03:35.929Z,10.05
2019-05-01T04:06:09.939Z,10.04
2019-05-01T04:08:43.284Z,10.07
2019-05-01T04:11:16.775Z,10.11
2019-05-01T04:13:50.558Z,10.18
2019-05-01T04:16:24.819Z,10.11
2019-05-01T04:18:58.573Z,10.04
2019-05-01T04:21:37.777Z,9.98
2019-05-01T04:24:11.554Z,9.91
2019-05-01T04:26:47.193Z,9.93
2019-05-01T04:29:28.713Z,9.95
2019-05-01T04:32:25.338Z,9.92
2019-05-01T04:35:19.370Z,9.93
2019-05-01T04:38:00.826Z,9.96
2019-05-01T04:40:37.383Z,9.97
2019-05-01T04:43:16.285Z,9.94
2019-05-01T04:45:56.509Z,9.96
2019-05-01T04:48:35.514Z,10.00
2019-05-01T04:51:15.831Z,10.03
2019-05-01T04:53:57.037Z,10.07
2019-05-01T04:56:34.202Z,10.05
2019-05-01T04:59:13.409Z,10.05
2019-05-01T05:01:57.694Z,10.09
2019-05-01T05:04:46.941Z,10.14
2019-05-01T05:07:26.866Z,10.22
2019-05-01T05:10:06.017Z,10.26
2019-05-01T05:12:52.419Z,10.29
2019-05-01T05:15:57.941Z,10.36
2019-05-01T05:18:37.991Z,10.39
2019-05-01T05:21:15.059Z,10.46
2019-05-01T05:23:53.400Z,10.49
2019-05-01T05:26:33.131Z,10.55
2019-05-01T05:29:09.466Z,10.62
2019-05-01T05:31:57.796Z,10.72
2019-05-01T05:34:38.190Z,10.83
2019-05-01T05:37:22.095Z,10.96
2019-05-01T05:39:59.642Z,11.10
2019-05-01T05:42:40.925Z,11.26
2019-05-01T05:45:19.609Z,11.40
2019-05-01T05:47:59.472Z,11.55
2019-05-01T05:50:41.318Z,11.69
2019-05-01T05:53:25.774Z,11.71
2019-05-01T05:56:07.747Z,11.81
2019-05-01T05:58:55.171Z,12.05
2019-05-01T06:01:45.287Z,12.09
2019-05-01T06:05:02.582Z,12.43
2019-05-01T06:07:57.979Z,12.84
2019-05-01T06:11:10.508Z,13.23
2019-05-01T06:14:09.710Z,13.48
2019-05-01T06:17:14.242Z,13.64
2019-05-01T06:20:00.292Z,13.81
2019-05-01T06:22:57.624Z,14.76
2019-05-01T06:25:39.285Z,15.22
2019-05-01T06:28:19.892Z,15.09
2019-05-01T06:30:56.383Z,15.18
2019-05-01T06:33:30.623Z,15.43
2019-05-01T06:36:13.181Z,15.27
2019-05-01T06:38:46.188Z,15.55
2019-05-01T06:41:20.494Z,15.87
2019-05-01T06:44:04.409Z,15.98
2019-05-01T06:47:03.316Z,15.95
2019-05-01T06:49:44.993Z,15.73
2019-05-01T06:52:27.717Z,15.60
2019-05-01T06:54:58.464Z,15.48
2019-05-01T06:57:33.429Z,15.25
2019-05-01T07:00:10.162Z,15.08
2019-05-01T07:02:44.929Z,15.10
2019-05-01T07:05:21.976Z,15.16
2019-05-01T07:07:58.774Z,15.23
2019-05-01T07:10:43.155Z,15.39
2019-05-01T07:13:10.529Z,15.73
2019-05-01T07:15:44.551Z,16.02
2019-05-01T07:18:18.810Z,16.18
2019-05-01T07:20:56.072Z,16.16
2019-05-01T07:23:30.759Z,16.10
2019-05-01T07:26:09.978Z,15.86
2019-05-01T07:28:44.899Z,15.96
2019-05-01T07:31:19.862Z,15.99
2019-05-01T07:33:57.530Z,16.00
2019-05-01T07:36:33.567Z,15.99
2019-05-01T07:39:14.787Z,15.99
2019-05-01T07:41:49.287Z,16.15
2019-05-01T07:44:33.825Z,16.47
2019-05-01T07:47:30.553Z,16.85
2019-05-01T07:50:07.188Z,17.22
2019-05-01T07:52:43.682Z,17.34
2019-05-01T07:55:22.334Z,18.17
2019-05-01T07:57:58.638Z,18.39
2019-05-01T08:00:43.287Z,17.96
2019-05-01T08:03:17.835Z,18.29
2019-05-01T08:05:52.220Z,18.29
2019-05-01T08:08:26.402Z,18.07
2019-05-01T08:11:05.312Z,18.28
2019-05-01T08:13:36.365Z,17.84
2019-05-01T08:16:10.125Z,17.38
2019-05-01T08:18:49.415Z,17.28
2019-05-01T08:21:31.155Z,16.80
2019-05-01T08:24:04.896Z,16.90
2019-05-01T08:26:39.559Z,17.02
2019-05-01T08:29:36.999Z,17.33
2019-05-01T08:32:26.916Z,17.36
2019-05-01T08:35:05.557Z,17.67
2019-05-01T08:37:39.040Z,17.85
2019-05-01T08:40:15.986Z,18.12
2019-05-01T08:42:48.532Z,18.50
2019-05-01T08:46:00.022Z,18.12
2019-05-01T08:48:47.535Z,18.25
2019-05-01T08:51:21.850Z,18.36
2019-05-01T08:53:57.777Z,18.11
2019-05-01T08:56:32.134Z,18.07
2019-05-01T08:59:06.392Z,18.35
2019-05-01T09:01:40.590Z,18.44
2019-05-01T09:04:15.507Z,18.67
2019-05-01T09:06:49.922Z,18.84
2019-05-01T09:09:23.640Z,18.52
2019-05-01T09:11:57.174Z,18.61
2019-05-01T09:14:35.050Z,19.46
2019-05-01T09:17:08.236Z,19.81
2019-05-01T09:19:42.379Z,21.20
2019-05-01T09:22:21.861Z,21.57
2019-05-01T09:24:59.989Z,21.22
2019-05-01T09:27:59.566Z,21.30
2019-05-01T09:30:37.304Z,20.63
2019-05-01T09:33:17.049Z,20.65
2019-05-01T09:35:50.601Z,20.94
2019-05-01T09:38:24.412Z,21.13
2019-05-01T09:40:59.461Z,21.47
2019-05-01T09:43:35.535Z,21.60
2019-05-01T09:46:10.395Z,21.33
2019-05-01T09:48:47.163Z,20.85
2019-05-01T09:51:42.460Z,20.17
2019-05-01T09:54:34.839Z,19.31
2019-05-01T09:57:10.385Z,18.79
2019-05-01T09:59:43.965Z,18.65
2019-05-01T10:02:19.355Z,18.56
2019-05-01T10:04:54.681Z,18.54
2019-05-01T10:07:30.685Z,18.24
2019-05-01T10:10:04.630Z,18.18
2019-05-01T10:12:41.696Z,18.27
2019-05-01T10:15:15.625Z,18.30
2019-05-01T10:17:50.837Z,18.15
2019-05-01T10:20:27.900Z,17.98
2019-05-01T10:23:07.751Z,18.04
2019-05-01T10:25:48.096Z,18.02
2019-05-01T10:28:30.043Z,18.15
2019-05-01T10:31:27.488Z,18.03
2019-05-01T10:34:09.176Z,18.08
2019-05-01T10:36:54.474Z,18.04
2019-05-01T10:39:30.227Z,18.09
2019-05-01T10:42:03.459Z,18.09
2019-05-01T10:44:37.198Z,17.99
2019-05-01T10:47:11.303Z,17.99
2019-05-01T10:49:45.748Z,17.75
2019-05-01T10:52:19.428Z,17.88
2019-05-01T10:54:53.620Z,18.00
2019-05-01T10:57:27.524Z,18.20
2019-05-01T11:00:01.404Z,18.41
2019-05-01T11:02:35.373Z,18.61
2019-05-01T11:05:08.857Z,19.03
2019-05-01T11:07:50.762Z,19.26
2019-05-01T11:10:24.655Z,19.60
2019-05-01T11:12:59.886Z,19.73
2019-05-01T11:15:33.892Z,20.51
2019-05-01T11:18:08.830Z,21.83
2019-05-01T11:20:42.761Z,23.69
2019-05-01T11:23:16.821Z,25.07
2019-05-01T11:25:50.213Z,25.69
2019-05-01T11:28:24.123Z,25.86
2019-05-01T11:30:59.833Z,26.11
2019-05-01T11:33:46.683Z,26.40
2019-05-01T11:36:48.670Z,24.37
2019-05-01T11:39:46.176Z,24.97
2019-05-01T11:42:20.840Z,26.48
2019-05-01T11:44:55.065Z,26.36
2019-05-01T11:47:29.863Z,25.42
2019-05-01T11:50:03.443Z,24.77
2019-05-01T11:52:37.106Z,25.33
2019-05-01T11:55:11.044Z,25.63
2019-05-01T11:57:44.830Z,26.76
2019-05-01T12:00:20.968Z,28.12
2019-05-01T12:02:55.731Z,27.63
2019-05-01T12:05:29.379Z,27.48
2019-05-01T12:08:04.403Z,27.41
2019-05-01T12:10:39.413Z,27.13
2019-05-01T12:13:14.075Z,26.76
2019-05-01T12:15:51.676Z,26.11
2019-05-01T12:18:26.098Z,25.01
2019-05-01T12:21:03.500Z,24.07
2019-05-01T12:23:37.849Z,23.32
2019-05-01T12:26:13.805Z,24.27
2019-05-01T12:28:49.448Z,24.92
2019-05-01T12:31:23.606Z,25.30
2019-05-01T12:33:56.658Z,25.93
2019-05-01T12:36:36.334Z,25.70
2019-05-01T12:39:12.353Z,26.60
2019-05-01T12:42:00.232Z,26.00
2019-05-01T12:44:34.409Z,27.18
2019-05-01T12:47:16.610Z,26.61
2019-05-01T12:49:55.562Z,26.30
2019-05-01T12:52:54.129Z,25.94
2019-05-01T12:55:34.206Z,25.67
2019-05-01T12:58:08.391Z,26.21
2019-05-01T13:00:50.145Z,26.47
2019-05-01T13:03:24.352Z,25.91
2019-05-01T13:05:58.883Z,25.53
2019-05-01T13:08:34.263Z,24.69
2019-05-01T13:11:09.140Z,24.67
2019-05-01T13:13:44.073Z,24.76
2019-05-01T13:16:18.459Z,24.52
2019-05-01T13:18:55.476Z,24.94
2019-05-01T13:21:29.975Z,25.76
2019-05-01T13:24:07.965Z,25.30
2019-05-01T13:26:52.429Z,25.82
2019-05-01T13:29:48.379Z,26.20
2019-05-01T13:32:53.034Z,25.23
2019-05-01T13:35:30.535Z,24.27
2019-05-01T13:38:05.129Z,23.34
2019-05-01T13:40:39.861Z,23.25
2019-05-01T13:43:15.175Z,22.97
2019-05-01T13:45:49.710Z,22.56
2019-05-01T13:48:23.424Z,22.16
2019-05-01T13:50:57.594Z,22.26
2019-05-01T13:53:32.325Z,22.93
2019-05-01T13:56:06.776Z,23.82
2019-05-01T13:58:40.687Z,23.92
2019-05-01T14:01:16.262Z,23.28
2019-05-01T14:03:52.286Z,23.76
2019-05-01T14:06:27.972Z,24.59
2019-05-01T14:09:02.250Z,25.01
2019-05-01T14:11:36.985Z,23.97
2019-05-01T14:14:11.612Z,23.14
2019-05-01T14:16:46.686Z,22.32
2019-05-01T14:19:21.896Z,23.73
2019-05-01T14:22:23.660Z,24.24
2019-05-01T14:24:59.560Z,24.85
2019-05-01T14:27:33.142Z,24.86
2019-05-01T14:30:07.129Z,25.84
2019-05-01T14:32:44.069Z,26.63
2019-05-01T14:35:17.336Z,27.09
2019-05-01T14:37:52.787Z,27.31
2019-05-01T14:40:26.792Z,26.86
2019-05-01T14:43:00.935Z,27.12
2019-05-01T14:45:35.172Z,27.04
2019-05-01T14:48:09.415Z,26.73
2019-05-01T14:50:46.175Z,26.11
2019-05-01T14:53:20.002Z,26.03
2019-05-01T14:55:53.780Z,26.00
2019-05-01T14:58:28.567Z,26.04
2019-05-01T15:01:02.999Z,25.68
2019-05-01T15:03:41.531Z,24.67
2019-05-01T15:06:25.354Z,23.83
2019-05-01T15:09:05.277Z,22.47
2019-05-01T15:11:43.983Z,22.06
2019-05-01T15:14:42.196Z,21.20
2019-05-01T15:17:29.456Z,20.72
2019-05-01T15:20:05.576Z,20.28
2019-05-01T15:22:40.947Z,19.72
2019-05-01T15:25:15.361Z,19.54
2019-05-01T15:27:49.982Z,19.38
2019-05-01T15:30:23.881Z,19.14
2019-05-01T15:33:00.517Z,18.95
2019-05-01T15:35:34.586Z,18.84
2019-05-01T15:38:07.718Z,18.82
2019-05-01T15:40:51.614Z,18.63
2019-05-01T15:43:29.304Z,18.50
2019-05-01T15:46:03.012Z,18.33
2019-05-01T15:48:36.516Z,18.19
2019-05-01T15:51:10.963Z,18.13
2019-05-01T15:53:45.239Z,18.08
2019-05-01T15:56:19.690Z,18.06
2019-05-01T15:58:54.045Z,18.04
2019-05-01T16:01:29.921Z,18.02
2019-05-01T16:04:04.810Z,18.02
2019-05-01T16:06:39.785Z,17.99
2019-05-01T16:09:15.633Z,17.97
2019-05-01T16:12:14.455Z,17.95
2019-05-01T16:14:52.003Z,17.97
2019-05-01T16:17:29.372Z,18.04
2019-05-01T16:20:03.865Z,18.10
2019-05-01T16:22:41.178Z,18.20
2019-05-01T16:25:17.153Z,18.23
2019-05-01T16:27:53.757Z,18.33
2019-05-01T16:30:28.429Z,18.32
2019-05-01T16:33:02.404Z,18.29
2019-05-01T16:35:36.476Z,18.16
2019-05-01T16:38:23.042Z,18.01
2019-05-01T16:41:02.702Z,17.85
2019-05-01T16:43:36.990Z,17.68
2019-05-01T16:46:11.967Z,17.55
2019-05-01T16:48:47.142Z,17.43
2019-05-01T16:51:21.340Z,17.40
2019-05-01T16:53:56.408Z,17.36
2019-05-01T16:56:33.082Z,17.41
2019-05-01T16:59:07.067Z,17.46
2019-05-01T17:01:56.540Z,17.52
2019-05-01T17:04:56.095Z,17.56
2019-05-01T17:07:38.962Z,17.50
2019-05-01T17:10:25.033Z,17.39
2019-05-01T17:12:59.208Z,17.35
2019-05-01T17:15:48.733Z,17.24
2019-05-01T17:18:23.771Z,17.22
2019-05-01T17:20:58.275Z,17.19
2019-05-01T17:23:33.618Z,17.09
2019-05-01T17:26:07.816Z,16.86
2019-05-01T17:28:41.862Z,16.72
2019-05-01T17:31:16.828Z,16.59
2019-05-01T17:33:55.497Z,16.45
2019-05-01T17:36:28.053Z,16.34
2019-05-01T17:39:06.996Z,16.19
2019-05-01T17:41:41.178Z,16.07
2019-05-01T17:44:20.001Z,15.95
2019-05-01T17:46:53.122Z,15.84
2019-05-01T17:49:29.858Z,15.68
2019-05-01T17:52:03.953Z,15.55
2019-05-01T17:54:38.833Z,15.42
2019-05-01T17:57:13.132Z,15.35
2019-05-01T17:59:48.848Z,15.27
2019-05-01T18:02:50.318Z,15.16
2019-05-01T18:05:46.610Z,15.05
2019-05-01T18:08:23.514Z,14.94
2019-05-01T18:11:00.215Z,14.83
2019-05-01T18:13:39.173Z,14.75
2019-05-01T18:16:24.137Z,14.70
2019-05-01T18:18:58.300Z,14.60
2019-05-01T18:21:32.440Z,14.52
2019-05-01T18:24:25.886Z,14.41
2019-05-01T18:27:14.615Z,14.31
2019-05-01T18:30:03.965Z,14.26
2019-05-01T18:32:47.600Z,14.19
2019-05-01T18:35:19.496Z,14.11
2019-05-01T18:38:11.739Z,14.02
2019-05-01T18:40:51.285Z,13.90
2019-05-01T18:43:32.071Z,13.79
2019-05-01T18:46:08.109Z,13.66
2019-05-01T18:48:42.400Z,13.54
2019-05-01T18:51:20.880Z,13.39
2019-05-01T18:53:58.703Z,13.26
2019-05-01T18:56:38.098Z,13.19
2019-05-01T18:59:12.015Z,13.10
2019-05-01T19:01:48.465Z,13.00
2019-05-01T19:04:31.445Z,12.88
2019-05-01T19:07:05.620Z,12.77
2019-05-01T19:09:40.752Z,12.79
2019-05-01T19:12:16.173Z,12.77
2019-05-01T19:14:51.349Z,12.71
2019-05-01T19:17:29.710Z,12.64
2019-05-01T19:20:04.458Z,12.52
2019-05-01T19:22:39.948Z,12.40
2019-05-01T19:25:18.028Z,12.31
2019-05-01T19:27:53.841Z,12.16
2019-05-01T19:30:29.628Z,12.01
2019-05-01T19:33:05.354Z,11.85
2019-05-01T19:35:40.217Z,11.84
2019-05-01T19:38:15.160Z,11.85
2019-05-01T19:40:50.591Z,11.85
2019-05-01T19:43:25.842Z,11.83
2019-05-01T19:46:01.049Z,11.75
2019-05-01T19:48:37.138Z,11.60
2019-05-01T19:51:12.610Z,11.47
2019-05-01T19:54:05.112Z,11.41
2019-05-01T19:56:43.278Z,11.27
2019-05-01T19:59:18.820Z,11.24
2019-05-01T20:01:52.976Z,11.21
2019-05-01T20:04:27.430Z,11.23
2019-05-01T20:07:02.907Z,11.20
2019-05-01T20:09:37.449Z,11.15
2019-05-01T20:12:12.330Z,11.16
2019-05-01T20:14:48.283Z,11.17
2019-05-01T20:17:26.720Z,11.09
2019-05-01T20:20:02.329Z,11.05
2019-05-01T20:22:41.025Z,10.92
2019-05-01T20:25:19.374Z,10.80
2019-05-01T20:27:54.632Z,10.78
2019-05-01T20:30:32.943Z,10.67
2019-05-01T20:33:14.480Z,10.56
2019-05-01T20:36:00.306Z,10.49
2019-05-01T20:38:37.298Z,10.37
2019-05-01T20:41:18.082Z,10.24
2019-05-01T20:43:53.360Z,10.09
2019-05-01T20:46:28.063Z,9.96
2019-05-01T20:49:06.472Z,9.87
2019-05-01T20:51:40.651Z,9.85
2019-05-01T20:54:14.706Z,9.83
2019-05-01T20:56:53.869Z,9.84
2019-05-01T20:59:28.409Z,9.83
2019-05-01T21:02:07.637Z,9.81
2019-05-01T21:05:06.575Z,9.81
2019-05-01T21:07:47.238Z,9.78
2019-05-01T21:10:24.902Z,9.71
2019-05-01T21:12:59.429Z,9.64
2019-05-01T21:15:35.601Z,9.61
2019-05-01T21:18:09.750Z,9.52
2019-05-01T21:20:44.955Z,9.49
2019-05-01T21:23:20.829Z,9.40
2019-05-01T21:25:55.077Z,9.38
2019-05-01T21:28:29.533Z,9.30
2019-05-01T21:31:03.939Z,9.27
2019-05-01T21:33:40.751Z,9.29
2019-05-01T21:36:13.712Z,9.24
2019-05-01T21:38:48.072Z,9.16
2019-05-01T21:41:24.339Z,9.09
2019-05-01T21:43:57.285Z,9.08
2019-05-01T21:46:30.717Z,9.02
2019-05-01T21:49:04.665Z,8.93
2019-05-01T21:51:44.365Z,8.81
2019-05-01T21:54:16.089Z,8.92
2019-05-01T21:56:48.924Z,8.97
2019-05-01T21:59:22.033Z,8.89
2019-05-01T22:01:57.054Z,8.90
2019-05-01T22:04:32.048Z,8.82
2019-05-01T22:07:08.085Z,8.77
2019-05-01T22:09:45.759Z,8.75
2019-05-01T22:12:17.884Z,8.76
2019-05-01T22:15:06.217Z,8.65
2019-05-01T22:17:58.097Z,8.56
2019-05-01T22:20:40.857Z,8.50
2019-05-01T22:23:21.887Z,8.49
2019-05-01T22:25:56.525Z,8.49
2019-05-01T22:28:38.060Z,8.43
2019-05-01T22:31:23.351Z,8.40
2019-05-01T22:34:05.609Z,8.33
2019-05-01T22:36:39.397Z,8.25
2019-05-01T22:39:13.492Z,8.18
2019-05-01T22:41:47.456Z,8.10
2019-05-01T22:44:20.969Z,8.04
2019-05-01T22:46:54.845Z,7.99
2019-05-01T22:49:28.353Z,7.96
2019-05-01T22:52:01.747Z,7.89
2019-05-01T22:54:35.427Z,7.83
2019-05-01T22:57:11.532Z,7.77
2019-05-01T22:59:44.851Z,7.69
2019-05-01T23:02:33.367Z,7.60
2019-05-01T23:05:07.157Z,7.57
2019-05-01T23:07:41.282Z,7.55
2019-05-01T23:10:15.692Z,7.62
2019-05-01T23:12:48.924Z,7.63
2019-05-01T23:15:24.583Z,7.56
2019-05-01T23:17:58.012Z,7.53
2019-05-01T23:20:34.658Z,7.53
2019-05-01T23:23:07.365Z,7.53
2019-05-01T23:25:42.415Z,7.49
2019-05-01T23:28:15.623Z,7.46
2019-05-01T23:30:49.962Z,7.43
2019-05-01T23:33:23.349Z,7.37
2019-05-01T23:35:57.295Z,7.31
2019-05-01T23:38:31.132Z,7.22
2019-05-01T23:41:04.865Z,7.10
2019-05-01T23:43:38.806Z,7.01
2019-05-01T23:46:12.519Z,7.01
2019-05-01T23:48:45.449Z,6.98
2019-05-01T23:51:23.653Z,6.94
2019-05-01T23:53:54.719Z,6.92
2019-05-01T23:56:30.995Z,6.87
2019-05-01T23:59:04.369Z,6.84
